createdAt,value
2019-01-28T00:01:41.519Z,92.03
2019-01-28T00:04:08.951Z,91.94
2019-01-28T00:06:36.411Z,92.23
2019-01-28T00:09:03.832Z,92.38
2019-01-28T00:11:31.280Z,92.42
2019-01-28T00:13:58.737Z,92.71
2019-01-28T00:16:26.167Z,92.65
2019-01-28T00:18:53.698Z,92.86
2019-01-28T00:21:21.158Z,92.84
2019-01-28T00:23:49.571Z,92.92
2019-01-28T00:26:17.937Z,92.94
2019-01-28T00:28:45.583Z,93.23
2019-01-28T00:31:13.502Z,92.98
2019-01-28T00:33:40.973Z,92.99
2019-01-28T00:36:08.436Z,92.72
2019-01-28T00:38:36.055Z,92.51
2019-01-28T00:41:03.527Z,92.62
2019-01-28T00:43:30.974Z,92.69
2019-01-28T00:45:59.696Z,92.92
2019-01-28T00:48:27.203Z,93.15
2019-01-28T00:50:54.621Z,93.19
2019-01-28T00:53:22.065Z,93.08
2019-01-28T00:55:49.497Z,92.97
2019-01-28T00:58:16.961Z,92.95
2019-01-28T01:00:44.431Z,93.17
2019-01-28T01:03:12.004Z,93.56
2019-01-28T01:05:39.479Z,94.16
2019-01-28T01:08:07.008Z,94.18
2019-01-28T01:10:34.662Z,94.16
2019-01-28T01:13:02.118Z,94.17
2019-01-28T01:15:29.570Z,94.06
2019-01-28T01:17:57.195Z,94.05
2019-01-28T01:20:25.480Z,94.56
2019-01-28T01:22:53.100Z,94.46
2019-01-28T01:25:20.745Z,94.39
2019-01-28T01:27:49.230Z,94.22
2019-01-28T01:30:16.717Z,94.63
2019-01-28T01:32:44.233Z,94.53
2019-01-28T01:35:11.740Z,94.36
2019-01-28T01:37:39.234Z,94.60
2019-01-28T01:40:06.649Z,94.64
2019-01-28T01:42:34.145Z,94.66
2019-01-28T01:45:01.691Z,94.49
2019-01-28T01:47:29.169Z,94.16
2019-01-28T01:49:56.607Z,94.04
2019-01-28T01:52:24.226Z,94.03
2019-01-28T01:54:51.681Z,93.80
2019-01-28T01:57:19.710Z,93.96
2019-01-28T01:59:47.176Z,93.94
2019-01-28T02:02:14.660Z,94.18
2019-01-28T02:04:42.100Z,94.35
2019-01-28T02:07:09.550Z,94.49
2019-01-28T02:09:37.992Z,94.29
2019-01-28T02:12:05.499Z,94.26
2019-01-28T02:14:33.191Z,94.16
2019-01-28T02:17:00.829Z,94.35
2019-01-28T02:19:28.305Z,94.52
2019-01-28T02:21:55.782Z,94.48
2019-01-28T02:24:23.299Z,94.64
2019-01-28T02:26:51.034Z,94.44
2019-01-28T02:29:18.497Z,94.41
2019-01-28T02:31:45.932Z,94.67
2019-01-28T02:34:13.378Z,94.75
2019-01-28T02:36:40.844Z,94.84
2019-01-28T02:39:08.351Z,94.81
2019-01-28T02:41:35.799Z,94.85
2019-01-28T02:44:03.273Z,94.95
2019-01-28T02:46:30.739Z,94.93
2019-01-28T02:48:58.178Z,95.20
2019-01-28T02:51:25.638Z,95.21
2019-01-28T02:53:53.093Z,95.21
2019-01-28T02:56:22.358Z,95.22
2019-01-28T02:58:50.930Z,94.97
2019-01-28T03:01:18.397Z,94.88
2019-01-28T03:03:45.849Z,95.30
2019-01-28T03:06:13.294Z,95.38
2019-01-28T03:08:40.768Z,95.38
2019-01-28T03:11:08.198Z,95.39
2019-01-28T03:13:35.655Z,95.51
2019-01-28T03:16:03.101Z,95.60
2019-01-28T03:18:30.596Z,95.51
2019-01-28T03:20:58.018Z,95.46
2019-01-28T03:23:25.460Z,95.75
2019-01-28T03:25:52.923Z,95.89
2019-01-28T03:28:21.393Z,96.16
2019-01-28T03:30:49.370Z,96.16
2019-01-28T03:33:16.815Z,96.35
2019-01-28T03:35:44.303Z,96.72
2019-01-28T03:38:11.783Z,96.90
2019-01-28T03:40:39.215Z,96.49
2019-01-28T03:43:06.694Z,96.14
2019-01-28T03:45:34.166Z,96.14
2019-01-28T03:48:01.662Z,96.22
2019-01-28T03:50:29.159Z,96.29
2019-01-28T03:52:56.610Z,96.35
2019-01-28T03:55:24.049Z,96.18
2019-01-28T03:57:51.865Z,96.05
2019-01-28T04:00:22.118Z,96.32
2019-01-28T04:02:49.563Z,96.50
2019-01-28T04:05:17.032Z,96.44
2019-01-28T04:07:44.486Z,96.11
2019-01-28T04:10:12.733Z,96.50
2019-01-28T04:12:40.169Z,96.28
2019-01-28T04:15:08.715Z,96.29
2019-01-28T04:17:36.171Z,96.20
2019-01-28T04:20:03.617Z,96.42
2019-01-28T04:22:31.397Z,96.32
2019-01-28T04:24:58.846Z,96.38
2019-01-28T04:27:26.276Z,96.38
2019-01-28T04:29:53.711Z,96.44
2019-01-28T04:32:21.219Z,96.50
2019-01-28T04:34:48.672Z,96.60
2019-01-28T04:37:16.704Z,96.58
2019-01-28T04:39:44.135Z,96.94
2019-01-28T04:42:11.625Z,96.65
2019-01-28T04:44:39.059Z,96.77
2019-01-28T04:47:06.476Z,96.73
2019-01-28T04:49:33.932Z,96.68
2019-01-28T04:52:01.393Z,96.78
2019-01-28T04:54:28.827Z,96.94
2019-01-28T04:56:56.264Z,97.08
2019-01-28T04:59:23.707Z,97.04
2019-01-28T05:01:51.162Z,97.17
2019-01-28T05:04:18.603Z,97.08
2019-01-28T05:06:46.939Z,97.16
2019-01-28T05:09:14.402Z,97.28
2019-01-28T05:11:41.855Z,97.41
2019-01-28T05:14:09.324Z,97.44
2019-01-28T05:16:36.757Z,97.40
2019-01-28T05:19:04.206Z,97.46
2019-01-28T05:21:31.715Z,97.58
2019-01-28T05:23:59.203Z,97.39
2019-01-28T05:26:26.628Z,97.10
2019-01-28T05:28:54.218Z,97.12
2019-01-28T05:31:21.646Z,97.15
2019-01-28T05:33:49.125Z,96.90
2019-01-28T05:36:16.538Z,97.13
2019-01-28T05:38:43.974Z,97.26
2019-01-28T05:41:11.441Z,97.23
2019-01-28T05:43:38.878Z,97.22
2019-01-28T05:46:06.359Z,97.11
2019-01-28T05:48:33.816Z,97.25
2019-01-28T05:51:01.250Z,97.18
2019-01-28T05:53:28.694Z,97.55
2019-01-28T05:55:56.133Z,97.42
2019-01-28T05:58:24.300Z,97.67
2019-01-28T06:00:51.770Z,97.54
2019-01-28T06:03:19.198Z,97.63
2019-01-28T06:05:46.687Z,97.68
2019-01-28T06:08:14.969Z,97.44
2019-01-28T06:10:44.861Z,97.23
2019-01-28T06:13:12.373Z,97.25
2019-01-28T06:15:39.811Z,97.30
2019-01-28T06:18:07.240Z,97.23
2019-01-28T06:20:34.685Z,97.32
2019-01-28T06:23:02.146Z,97.48
2019-01-28T06:25:29.579Z,97.34
2019-01-28T06:27:57.034Z,97.42
2019-01-28T06:30:25.330Z,97.32
2019-01-28T06:32:52.796Z,97.25
2019-01-28T06:35:20.218Z,97.21
2019-01-28T06:37:47.680Z,97.47
2019-01-28T06:40:25.136Z,97.57
2019-01-28T06:42:52.581Z,97.78
2019-01-28T06:45:20.057Z,97.76
2019-01-28T06:47:47.474Z,97.83
2019-01-28T06:50:15.909Z,97.75
2019-01-28T06:52:43.321Z,98.02
2019-01-28T06:55:10.781Z,98.17
2019-01-28T06:57:38.217Z,97.98
2019-01-28T07:00:25.154Z,97.91
2019-01-28T07:02:52.570Z,97.70
2019-01-28T07:05:20.014Z,97.91
2019-01-28T07:07:47.489Z,97.91
2019-01-28T07:10:14.922Z,97.81
2019-01-28T07:12:42.434Z,97.94
2019-01-28T07:15:09.877Z,98.09
2019-01-28T07:17:37.340Z,98.09
2019-01-28T07:20:04.798Z,98.37
2019-01-28T07:22:32.310Z,98.37
2019-01-28T07:24:59.805Z,98.26
2019-01-28T07:27:27.255Z,98.16
2019-01-28T07:29:54.698Z,98.40
2019-01-28T07:32:22.174Z,98.59
2019-01-28T07:34:49.645Z,98.67
2019-01-28T07:37:17.070Z,98.56
2019-01-28T07:39:44.578Z,98.50
2019-01-28T07:42:12.030Z,98.28
2019-01-28T07:44:39.461Z,98.10
2019-01-28T07:47:06.910Z,98.46
2019-01-28T07:49:34.363Z,98.47
2019-01-28T07:52:02.817Z,98.58
2019-01-28T07:54:30.371Z,98.69
2019-01-28T07:56:57.852Z,98.40
2019-01-28T07:59:25.284Z,98.33
2019-01-28T08:01:52.738Z,98.46
2019-01-28T08:04:20.175Z,98.35
2019-01-28T08:06:47.695Z,98.70
2019-01-28T08:09:15.149Z,98.77
2019-01-28T08:11:42.593Z,98.74
2019-01-28T08:14:10.029Z,98.51
2019-01-28T08:16:37.516Z,98.39
2019-01-28T08:19:04.949Z,98.56
2019-01-28T08:21:32.396Z,98.39
2019-01-28T08:23:59.855Z,98.23
2019-01-28T08:26:27.313Z,97.92
2019-01-28T08:28:54.751Z,97.79
2019-01-28T08:31:22.245Z,97.83
2019-01-28T08:33:49.655Z,98.23
2019-01-28T08:36:18.744Z,98.23
2019-01-28T08:38:46.914Z,98.16
2019-01-28T08:41:14.391Z,98.19
2019-01-28T08:43:41.846Z,98.19
2019-01-28T08:46:09.273Z,98.31
2019-01-28T08:48:36.716Z,98.27
2019-01-28T08:51:04.190Z,98.49
2019-01-28T08:53:31.634Z,98.44
2019-01-28T08:55:59.055Z,98.64
2019-01-28T08:58:27.552Z,98.43
2019-01-28T09:00:55.043Z,98.38
2019-01-28T09:03:22.492Z,98.63
2019-01-28T09:05:49.951Z,98.50
2019-01-28T09:08:17.371Z,98.43
2019-01-28T09:10:44.840Z,99.01
2019-01-28T09:13:12.297Z,99.28
2019-01-28T09:15:39.771Z,99.31
2019-01-28T09:18:07.256Z,99.41
2019-01-28T09:20:35.743Z,99.82
2019-01-28T09:23:03.284Z,99.98
2019-01-28T09:25:30.728Z,100.00
2019-01-28T09:27:58.190Z,100.00
2019-01-28T09:30:26.354Z,100.00
2019-01-28T09:32:53.775Z,100.00
2019-01-28T09:35:21.223Z,100.00
2019-01-28T09:37:48.675Z,99.81
2019-01-28T09:40:19.719Z,99.79
2019-01-28T09:42:47.158Z,99.65
2019-01-28T09:45:17.510Z,99.49
2019-01-28T09:47:44.926Z,99.36
2019-01-28T09:50:12.390Z,99.17
2019-01-28T09:52:39.830Z,98.84
2019-01-28T09:55:07.291Z,98.61
2019-01-28T09:57:34.760Z,98.22
2019-01-28T10:00:02.235Z,98.28
2019-01-28T10:02:29.685Z,97.91
2019-01-28T10:04:57.151Z,98.02
2019-01-28T10:07:24.643Z,97.76
2019-01-28T10:09:52.071Z,97.57
2019-01-28T10:12:21.757Z,97.31
2019-01-28T10:14:49.313Z,97.54
2019-01-28T10:17:16.795Z,97.63
2019-01-28T10:19:44.231Z,97.67
2019-01-28T10:22:11.665Z,97.56
2019-01-28T10:24:39.100Z,97.70
2019-01-28T10:27:06.563Z,97.66
2019-01-28T10:29:34.401Z,97.53
2019-01-28T10:32:01.920Z,97.41
2019-01-28T10:34:29.674Z,97.39
2019-01-28T10:36:57.224Z,97.19
2019-01-28T10:39:24.669Z,97.29
2019-01-28T10:41:52.121Z,97.09
2019-01-28T10:44:19.576Z,97.03
2019-01-28T10:46:47.029Z,97.20
2019-01-28T10:49:14.491Z,97.18
2019-01-28T10:51:41.939Z,97.63
2019-01-28T10:54:09.384Z,97.84
2019-01-28T10:56:36.850Z,98.43
2019-01-28T10:59:04.319Z,98.64
2019-01-28T11:01:31.771Z,98.12
2019-01-28T11:04:00.073Z,98.03
2019-01-28T11:06:27.510Z,97.68
2019-01-28T11:08:54.983Z,97.85
2019-01-28T11:11:22.440Z,98.33
2019-01-28T11:13:49.982Z,98.43
2019-01-28T11:16:17.423Z,98.30
2019-01-28T11:18:45.783Z,98.27
2019-01-28T11:21:13.375Z,98.25
2019-01-28T11:23:40.868Z,98.42
2019-01-28T11:26:08.317Z,98.31
2019-01-28T11:28:35.720Z,98.35
2019-01-28T11:31:03.285Z,98.37
2019-01-28T11:33:30.802Z,97.96
2019-01-28T11:36:05.136Z,97.96
2019-01-28T11:38:25.868Z,97.95
2019-01-28T11:40:54.013Z,98.08
2019-01-28T11:43:21.790Z,98.42
2019-01-28T11:45:50.001Z,98.51
2019-01-28T11:48:17.560Z,98.32
2019-01-28T11:50:44.882Z,98.54
2019-01-28T11:53:12.332Z,98.63
2019-01-28T11:55:39.787Z,98.50
2019-01-28T11:58:07.244Z,98.59
2019-01-28T12:00:53.395Z,98.61
2019-01-28T12:03:20.852Z,98.50
2019-01-28T12:05:48.293Z,98.36
2019-01-28T12:08:15.801Z,98.25
2019-01-28T12:10:43.257Z,98.08
2019-01-28T12:13:10.687Z,98.12
2019-01-28T12:15:38.116Z,97.99
2019-01-28T12:18:06.077Z,98.19
2019-01-28T12:20:32.983Z,98.10
2019-01-28T12:23:00.442Z,98.04
2019-01-28T12:25:27.877Z,98.11
2019-01-28T12:27:55.303Z,98.04
2019-01-28T12:30:24.288Z,97.98
2019-01-28T12:32:51.729Z,97.92
2019-01-28T12:35:19.167Z,98.06
2019-01-28T12:37:46.649Z,98.11
2019-01-28T12:40:14.874Z,97.97
2019-01-28T12:42:41.579Z,98.09
2019-01-28T12:45:09.780Z,98.17
2019-01-28T12:47:37.223Z,98.15
2019-01-28T12:50:06.220Z,98.31
2019-01-28T12:52:33.669Z,98.17
2019-01-28T12:55:01.135Z,98.10
2019-01-28T12:57:28.547Z,97.92
2019-01-28T12:59:55.991Z,97.84
2019-01-28T13:02:23.471Z,98.30
2019-01-28T13:04:50.923Z,98.12
2019-01-28T13:07:18.391Z,98.13
2019-01-28T13:09:45.799Z,98.17
2019-01-28T13:12:13.249Z,98.27
2019-01-28T13:14:40.679Z,98.18
2019-01-28T13:17:08.154Z,98.29
2019-01-28T13:19:35.643Z,98.26
2019-01-28T13:22:03.076Z,98.31
2019-01-28T13:24:30.527Z,98.26
2019-01-28T13:26:57.979Z,98.23
2019-01-28T13:29:25.432Z,98.17
2019-01-28T13:31:52.889Z,98.31
2019-01-28T13:34:20.295Z,98.11
2019-01-28T13:36:47.731Z,98.26
2019-01-28T13:39:15.184Z,98.02
2019-01-28T13:41:42.625Z,98.16
2019-01-28T13:44:10.086Z,98.14
2019-01-28T13:46:37.503Z,98.24
2019-01-28T13:49:04.957Z,98.02
2019-01-28T13:51:33.295Z,97.99
2019-01-28T13:54:00.769Z,98.97
2019-01-28T13:56:28.262Z,99.34
2019-01-28T13:58:55.688Z,99.60
2019-01-28T14:01:23.136Z,99.50
2019-01-28T14:03:50.642Z,99.62
2019-01-28T14:06:18.090Z,99.32
2019-01-28T14:08:45.545Z,98.85
2019-01-28T14:11:12.970Z,98.75
2019-01-28T14:13:40.413Z,98.59
2019-01-28T14:16:07.885Z,98.38
2019-01-28T14:18:35.324Z,98.35
2019-01-28T14:21:02.770Z,98.19
2019-01-28T14:23:30.221Z,97.91
2019-01-28T14:25:57.653Z,97.79
2019-01-28T14:28:25.087Z,98.14
2019-01-28T14:30:52.569Z,97.74
2019-01-28T14:33:20.044Z,97.42
2019-01-28T14:35:47.510Z,97.10
2019-01-28T14:38:14.943Z,96.86
2019-01-28T14:40:42.396Z,96.38
2019-01-28T14:43:09.835Z,96.14
2019-01-28T14:45:37.274Z,96.33
2019-01-28T14:48:04.742Z,96.49
2019-01-28T14:50:34.001Z,96.60
2019-01-28T14:53:01.475Z,96.73
2019-01-28T14:55:28.915Z,96.62
2019-01-28T14:57:56.331Z,96.45
2019-01-28T15:00:26.715Z,96.30
2019-01-28T15:02:54.164Z,96.70
2019-01-28T15:05:21.598Z,97.06
2019-01-28T15:07:49.057Z,97.08
2019-01-28T15:10:17.573Z,96.93
2019-01-28T15:12:45.095Z,97.07
2019-01-28T15:15:20.832Z,97.13
2019-01-28T15:17:48.332Z,97.08
2019-01-28T15:20:15.766Z,96.83
2019-01-28T15:22:43.207Z,96.80
2019-01-28T15:25:10.664Z,96.64
2019-01-28T15:27:38.142Z,96.52
2019-01-28T15:30:06.515Z,96.51
2019-01-28T15:32:35.525Z,96.48
2019-01-28T15:35:03.079Z,96.31
2019-01-28T15:37:30.548Z,95.86
2019-01-28T15:39:57.992Z,96.14
2019-01-28T15:42:25.425Z,95.99
2019-01-28T15:44:52.834Z,96.38
2019-01-28T15:47:21.266Z,96.59
2019-01-28T15:49:48.810Z,96.54
2019-01-28T15:52:16.268Z,95.95
2019-01-28T15:54:43.765Z,95.98
2019-01-28T15:57:11.235Z,95.95
2019-01-28T15:59:38.670Z,96.13
2019-01-28T16:02:06.129Z,96.07
2019-01-28T16:04:34.170Z,95.63
2019-01-28T16:07:01.609Z,95.62
2019-01-28T16:09:30.700Z,94.99
2019-01-28T16:14:38.468Z,95.16
2019-01-28T16:17:06.417Z,95.25
2019-01-28T16:19:34.579Z,95.40
2019-01-28T16:22:02.054Z,94.90
2019-01-28T16:24:29.650Z,94.42
2019-01-28T16:26:57.208Z,93.56
2019-01-28T16:29:24.658Z,92.85
2019-01-28T16:31:53.123Z,93.47
2019-01-28T16:34:20.616Z,93.38
2019-01-28T16:36:48.162Z,93.29
2019-01-28T16:39:15.661Z,93.91
2019-01-28T16:41:45.262Z,93.97
2019-01-28T16:44:14.361Z,95.10
2019-01-28T16:46:43.981Z,94.94
2019-01-28T16:49:13.167Z,94.30
2019-01-28T16:51:42.130Z,94.44
2019-01-28T16:54:14.599Z,95.50
2019-01-28T16:56:44.785Z,94.78
2019-01-28T16:59:15.421Z,94.50
2019-01-28T17:01:45.542Z,94.52
2019-01-28T17:04:14.789Z,94.77
2019-01-28T17:06:43.627Z,94.84
2019-01-28T17:09:12.736Z,94.82
2019-01-28T17:11:41.888Z,94.83
2019-01-28T17:14:11.490Z,94.95
2019-01-28T17:16:39.014Z,94.97
2019-01-28T17:19:06.475Z,94.89
2019-01-28T17:21:34.012Z,94.71
2019-01-28T17:24:01.529Z,94.57
2019-01-28T17:26:29.026Z,94.27
2019-01-28T17:28:56.548Z,94.17
2019-01-28T17:31:23.991Z,93.86
2019-01-28T17:33:51.487Z,93.89
2019-01-28T17:36:18.998Z,93.46
2019-01-28T17:38:47.458Z,93.24
2019-01-28T17:41:14.903Z,92.70
2019-01-28T17:43:43.246Z,93.09
2019-01-28T17:46:10.742Z,92.56
2019-01-28T17:48:38.251Z,92.48
2019-01-28T17:51:05.703Z,92.33
2019-01-28T17:53:33.177Z,92.50
2019-01-28T17:56:00.698Z,91.89
2019-01-28T17:58:28.200Z,91.91
2019-01-28T18:00:55.719Z,91.40
2019-01-28T18:03:23.191Z,91.40
2019-01-28T18:05:50.673Z,91.35
2019-01-28T18:08:18.221Z,91.00
2019-01-28T18:10:45.710Z,91.06
2019-01-28T18:13:14.027Z,91.16
2019-01-28T18:15:42.585Z,90.62
2019-01-28T18:18:10.127Z,90.71
2019-01-28T18:20:37.635Z,90.86
2019-01-28T18:23:05.113Z,90.82
2019-01-28T18:25:35.434Z,90.90
2019-01-28T18:28:02.922Z,90.72
2019-01-28T18:30:49.618Z,90.63
2019-01-28T18:33:17.061Z,90.50
2019-01-28T18:35:44.530Z,90.21
2019-01-28T18:38:11.984Z,90.71
2019-01-28T18:40:39.457Z,90.37
2019-01-28T18:43:06.913Z,90.46
2019-01-28T18:45:39.328Z,90.42
2019-01-28T18:48:08.569Z,90.47
2019-01-28T18:50:41.589Z,90.81
2019-01-28T18:53:12.095Z,91.07
2019-01-28T18:55:47.331Z,90.94
2019-01-28T18:58:15.222Z,91.08
2019-01-28T19:00:45.867Z,91.11
2019-01-28T19:03:15.052Z,91.65
2019-01-28T19:05:59.072Z,91.60
2019-01-28T19:08:42.737Z,91.45
2019-01-28T19:11:23.933Z,91.43
2019-01-28T19:14:06.155Z,91.79
2019-01-28T19:16:38.868Z,91.88
2019-01-28T19:19:07.549Z,92.26
2019-01-28T19:22:02.261Z,92.11
2019-01-28T19:24:51.246Z,92.39
2019-01-28T19:27:27.890Z,92.51
2019-01-28T19:29:57.264Z,92.70
2019-01-28T19:32:28.122Z,93.02
2019-01-28T19:35:05.550Z,92.82
2019-01-28T19:37:45.385Z,93.32
2019-01-28T19:40:21.731Z,93.14
2019-01-28T19:42:50.019Z,93.02
2019-01-28T19:45:17.805Z,93.01
2019-01-28T19:54:20.063Z,92.95
2019-01-28T20:06:19.807Z,92.04
2019-01-28T20:14:58.706Z,91.96
2019-01-28T20:17:49.075Z,92.46
2019-01-28T20:20:29.972Z,92.66
2019-01-28T20:22:58.755Z,92.53
2019-01-28T20:25:35.627Z,92.33
2019-01-28T20:28:02.293Z,92.40
2019-01-28T20:30:30.087Z,92.28
2019-01-28T20:33:16.333Z,92.60
2019-01-28T20:36:06.009Z,92.82
2019-01-28T20:44:36.009Z,92.95
2019-01-28T20:47:09.514Z,93.14
2019-01-28T20:55:59.601Z,93.49
2019-01-28T21:01:37.026Z,93.38
2019-01-28T21:04:08.571Z,93.39
2019-01-28T21:12:26.080Z,93.34
2019-01-28T21:14:54.085Z,93.14
2019-01-28T21:17:21.627Z,93.18
2019-01-28T21:19:49.100Z,93.09
2019-01-28T21:22:16.866Z,92.78
2019-01-28T21:24:45.091Z,93.00
2019-01-28T21:32:37.267Z,92.96
2019-01-28T21:35:27.688Z,93.01
2019-01-28T21:38:26.777Z,93.63
2019-01-28T21:40:57.895Z,93.76
2019-01-28T21:43:25.438Z,93.75
2019-01-28T21:46:10.398Z,93.71
2019-01-28T21:48:56.670Z,93.70
2019-01-28T21:57:30.273Z,93.55
2019-01-28T22:15:39.727Z,94.09
2019-01-28T22:18:12.807Z,94.68
2019-01-28T22:20:42.809Z,94.61
2019-01-28T22:26:25.338Z,94.85
2019-01-28T22:29:01.920Z,95.13
2019-01-28T22:31:34.833Z,94.92
2019-01-28T22:34:04.038Z,95.21
2019-01-28T22:36:31.674Z,95.08
2019-01-28T22:42:05.504Z,95.00
2019-01-28T22:44:37.326Z,94.94
2019-01-28T22:47:05.656Z,94.87
2019-01-28T22:49:34.297Z,94.73
2019-01-28T22:52:07.727Z,94.53
2019-01-28T22:54:31.826Z,94.50
2019-01-28T22:57:00.024Z,94.63
2019-01-28T22:59:28.719Z,94.43
2019-01-28T23:01:57.715Z,94.20
2019-01-28T23:04:27.011Z,93.89
2019-01-28T23:06:55.524Z,94.12
2019-01-28T23:09:23.121Z,93.93
2019-01-28T23:11:50.541Z,93.75
2019-01-28T23:14:18.030Z,93.86
2019-01-28T23:16:46.582Z,93.91
2019-01-28T23:19:19.056Z,93.74
2019-01-28T23:21:48.883Z,93.61
2019-01-28T23:24:17.727Z,93.35
2019-01-28T23:26:46.160Z,93.06
2019-01-28T23:29:38.893Z,92.85
2019-01-28T23:32:07.953Z,93.46
2019-01-28T23:34:36.892Z,93.67
2019-01-28T23:37:07.313Z,93.51
2019-01-28T23:39:35.906Z,93.58
2019-01-28T23:42:03.607Z,93.66
2019-01-28T23:44:31.133Z,93.77
2019-01-28T23:46:58.572Z,94.10
2019-01-28T23:49:26.083Z,94.17
2019-01-28T23:51:57.300Z,94.28
2019-01-28T23:54:25.495Z,94.38
2019-01-28T23:56:56.143Z,94.07
2019-01-28T23:59:25.842Z,93.90
